Time;durP1;ratioP1;P1;durP2;ratioP2;P2;SDS_P1;SDS_P2;PMS_P1;PMS_P2;Temp;Humidity;BMP_temperature;BMP_pressure;BME280_temperature;BME280_humidity;BME280_pressure;Samples;Min_cycle;Max_cycle;Signal;HPM_P1;HPM_P2
2023/06/23 00:00:43;;;;;;;0.30;0.30;;;;;;;;;;5112408;28;20083;-85
2023/06/23 00:03:09;;;;;;;0.20;0.20;;;;;;;;;;5112407;28;20028;-86
2023/06/23 00:05:35;;;;;;;0.00;0.00;;;;;;;;;;5112402;28;20099;-86
2023/06/23 00:08:01;;;;;;;0.32;0.32;;;;;;;;;;5110702;28;20158;-85
2023/06/23 00:10:28;;;;;;;0.03;0.03;;;;;;;;;;5111981;28;20472;-85
2023/06/23 00:12:54;;;;;;;0.10;0.10;;;;;;;;;;5112650;28;20038;-86
2023/06/23 00:15:21;;;;;;;0.00;0.00;;;;;;;;;;5112063;28;20108;-86
2023/06/23 00:17:49;;;;;;;0.00;0.00;;;;;;;;;;5112124;28;20030;-85
2023/06/23 00:20:16;;;;;;;0.00;0.00;;;;;;;;;;5111867;28;20024;-86
2023/06/23 00:22:43;;;;;;;0.30;0.30;;;;;;;;;;5112204;28;20185;-86
2023/06/23 00:25:12;;;;;;;0.20;0.20;;;;;;;;;;5112313;28;20059;-85
2023/06/23 00:27:41;;;;;;;0.10;0.10;;;;;;;;;;5112427;28;20099;-85
2023/06/23 00:30:08;;;;;;;0.13;0.13;;;;;;;;;;5112026;28;20077;-85
2023/06/23 00:32:34;;;;;;;0.20;0.20;;;;;;;;;;5111981;28;20035;-85
2023/06/23 00:35:00;;;;;;;0.08;0.08;;;;;;;;;;5111534;28;20444;-86
2023/06/23 00:37:26;;;;;;;0.10;0.10;;;;;;;;;;5112911;28;20027;-86
2023/06/23 00:39:52;;;;;;;0.20;0.20;;;;;;;;;;5116290;28;20028;-86
2023/06/23 00:42:18;;;;;;;0.00;0.00;;;;;;;;;;5115711;28;20079;-86
2023/06/23 00:44:44;;;;;;;0.00;0.00;;;;;;;;;;5114524;28;20091;-86
2023/06/23 00:47:10;;;;;;;0.00;0.00;;;;;;;;;;5116016;28;20432;-86
2023/06/23 00:49:36;;;;;;;0.55;0.30;;;;;;;;;;5115346;28;20053;-86
2023/06/23 00:52:03;;;;;;;0.10;0.10;;;;;;;;;;5115485;28;20105;-85
2023/06/23 00:54:32;;;;;;;0.00;0.00;;;;;;;;;;5115663;28;20073;-85
2023/06/23 00:56:58;;;;;;;0.10;0.10;;;;;;;;;;5115668;28;20593;-85
2023/06/23 00:59:30;;;;;;;0.47;0.45;;;;;;;;;;5115158;28;20031;-86
2023/06/23 01:01:59;;;;;;;0.13;0.13;;;;;;;;;;5115824;28;20020;-85
2023/06/23 01:04:27;;;;;;;0.10;0.10;;;;;;;;;;5114963;28;20509;-86
2023/06/23 01:07:05;;;;;;;0.10;0.10;;;;;;;;;;5115267;28;20078;-86
2023/06/23 01:09:34;;;;;;;0.20;0.20;;;;;;;;;;5115297;28;20515;-86
2023/06/23 01:12:08;;;;;;;0.10;0.10;;;;;;;;;;5115477;28;20028;-85
2023/06/23 01:14:45;;;;;;;0.10;0.10;;;;;;;;;;5113843;28;20035;-85
2023/06/23 01:17:16;;;;;;;0.32;0.32;;;;;;;;;;5115290;28;20038;-86
2023/06/23 01:19:48;;;;;;;0.45;0.45;;;;;;;;;;5114688;28;20032;-86
2023/06/23 01:22:20;;;;;;;0.10;0.10;;;;;;;;;;5115066;28;20032;-85
2023/06/23 01:24:55;;;;;;;0.22;0.22;;;;;;;;;;5115004;28;20028;-85
2023/06/23 01:27:30;;;;;;;0.00;0.00;;;;;;;;;;5115096;28;20015;-85
2023/06/23 01:29:59;;;;;;;0.35;0.30;;;;;;;;;;5114617;28;20031;-85
2023/06/23 01:32:26;;;;;;;0.30;0.30;;;;;;;;;;5114864;28;20022;-86
2023/06/23 01:34:55;;;;;;;0.20;0.20;;;;;;;;;;5114575;28;20130;-85
2023/06/23 01:37:24;;;;;;;0.10;0.10;;;;;;;;;;5114692;28;20050;-85
2023/06/23 01:39:53;;;;;;;1.38;0.68;;;;;;;;;;5114777;28;20360;-85
2023/06/23 01:42:20;;;;;;;0.10;0.10;;;;;;;;;;5114946;28;20023;-86
2023/06/23 01:44:51;;;;;;;0.55;0.28;;;;;;;;;;5114578;28;20032;-85
2023/06/23 01:47:18;;;;;;;0.00;0.00;;;;;;;;;;5114210;28;20023;-85
2023/06/23 01:49:45;;;;;;;0.08;0.08;;;;;;;;;;5114317;28;20032;-85
2023/06/23 01:52:12;;;;;;;0.22;0.22;;;;;;;;;;5114469;28;20103;-85
2023/06/23 01:54:40;;;;;;;0.30;0.30;;;;;;;;;;5113536;28;20081;-85
2023/06/23 01:57:07;;;;;;;0.28;0.28;;;;;;;;;;5114417;28;20059;-86
2023/06/23 01:59:34;;;;;;;0.22;0.10;;;;;;;;;;5114217;28;20085;-85
2023/06/23 02:02:01;;;;;;;0.10;0.10;;;;;;;;;;5113928;28;20019;-85
2023/06/23 02:04:28;;;;;;;0.10;0.10;;;;;;;;;;5114120;28;20023;-85
2023/06/23 02:06:55;;;;;;;0.10;0.10;;;;;;;;;;5114418;28;20023;-85
2023/06/23 02:09:25;;;;;;;0.55;0.30;;;;;;;;;;5114199;28;20103;-86
2023/06/23 02:11:53;;;;;;;0.03;0.03;;;;;;;;;;5112953;28;20024;-85
2023/06/23 02:14:19;;;;;;;0.30;0.30;;;;;;;;;;5113877;28;20064;-85
2023/06/23 02:16:46;;;;;;;0.10;0.10;;;;;;;;;;5113382;28;20375;-85
2023/06/23 02:19:12;;;;;;;0.05;0.05;;;;;;;;;;5114033;28;20046;-85
2023/06/23 02:21:38;;;;;;;0.20;0.20;;;;;;;;;;5114095;28;20024;-85
2023/06/23 02:24:06;;;;;;;0.75;0.63;;;;;;;;;;5114060;28;20028;-85
2023/06/23 02:26:33;;;;;;;0.30;0.30;;;;;;;;;;5113770;28;20035;-86
2023/06/23 02:29:00;;;;;;;0.35;0.35;;;;;;;;;;5113590;28;20598;-85
2023/06/23 02:31:26;;;;;;;0.20;0.20;;;;;;;;;;5113178;28;20023;-85
2023/06/23 02:33:52;;;;;;;0.85;0.40;;;;;;;;;;5113548;28;20040;-85
2023/06/23 02:36:22;;;;;;;0.43;0.43;;;;;;;;;;5113530;28;20031;-85
2023/06/23 02:38:49;;;;;;;0.20;0.20;;;;;;;;;;5113563;28;20028;-85
2023/06/23 02:41:17;;;;;;;0.88;0.30;;;;;;;;;;5113697;28;20558;-85
2023/06/23 02:43:54;;;;;;;0.40;0.40;;;;;;;;;;5113391;28;20019;-86
2023/06/23 02:46:21;;;;;;;0.00;0.00;;;;;;;;;;5112921;28;20027;-85
2023/06/23 02:48:49;;;;;;;0.00;0.00;;;;;;;;;;5113623;28;20020;-85
2023/06/23 02:51:17;;;;;;;0.17;0.17;;;;;;;;;;5113354;28;20032;-85
2023/06/23 02:53:47;;;;;;;0.10;0.10;;;;;;;;;;5113288;28;20357;-85
2023/06/23 02:56:17;;;;;;;0.22;0.22;;;;;;;;;;5113093;28;20035;-85
2023/06/23 02:58:46;;;;;;;0.50;0.50;;;;;;;;;;5113091;28;20379;-85
2023/06/23 03:01:14;;;;;;;0.25;0.25;;;;;;;;;;5112390;28;20028;-85
2023/06/23 03:03:41;;;;;;;0.10;0.10;;;;;;;;;;5113174;28;20024;-85
2023/06/23 03:06:17;;;;;;;0.43;0.43;;;;;;;;;;5112901;28;20511;-85
2023/06/23 03:08:43;;;;;;;0.20;0.20;;;;;;;;;;5113354;28;20039;-86
2023/06/23 03:11:09;;;;;;;0.20;0.20;;;;;;;;;;5113146;28;20028;-85
2023/06/23 03:13:35;;;;;;;0.22;0.22;;;;;;;;;;5113023;28;20032;-85
2023/06/23 03:16:05;;;;;;;0.10;0.10;;;;;;;;;;5112683;28;20024;-85
2023/06/23 03:18:33;;;;;;;0.80;0.20;;;;;;;;;;5112859;28;20028;-85
2023/06/23 03:21:02;;;;;;;0.30;0.30;;;;;;;;;;5113062;28;20043;-85
2023/06/23 03:23:29;;;;;;;0.35;0.17;;;;;;;;;;5112789;28;20051;-85
2023/06/23 03:25:55;;;;;;;0.88;0.85;;;;;;;;;;5112820;28;20030;-85
2023/06/23 03:28:25;;;;;;;0.52;0.47;;;;;;;;;;5112599;28;20031;-85
2023/06/23 03:30:56;;;;;;;0.43;0.40;;;;;;;;;;5112371;28;20484;-85
2023/06/23 03:33:24;;;;;;;0.68;0.28;;;;;;;;;;5112679;28;20089;-85
2023/06/23 03:35:51;;;;;;;0.75;0.43;;;;;;;;;;5113002;28;20035;-86
2023/06/23 03:38:21;;;;;;;0.65;0.30;;;;;;;;;;5112734;28;20034;-85
2023/06/23 03:40:56;;;;;;;0.45;0.40;;;;;;;;;;5112437;28;20051;-86
2023/06/23 03:43:27;;;;;;;1.15;0.55;;;;;;;;;;5112487;28;20028;-85
2023/06/23 03:45:55;;;;;;;0.17;0.17;;;;;;;;;;5112560;28;20032;-85
2023/06/23 03:48:22;;;;;;;0.22;0.22;;;;;;;;;;5112603;28;20015;-85
2023/06/23 03:50:50;;;;;;;0.40;0.40;;;;;;;;;;5112442;28;20055;-85
2023/06/23 03:53:17;;;;;;;0.40;0.40;;;;;;;;;;5112795;28;20062;-85
2023/06/23 03:55:43;;;;;;;0.35;0.30;;;;;;;;;;5112278;28;20039;-85
2023/06/23 03:58:10;;;;;;;0.43;0.43;;;;;;;;;;5112114;28;20077;-85
2023/06/23 04:00:37;;;;;;;0.30;0.30;;;;;;;;;;5112481;28;20043;-85
2023/06/23 04:03:06;;;;;;;0.22;0.22;;;;;;;;;;5112817;28;20384;-85
2023/06/23 04:05:33;;;;;;;0.47;0.47;;;;;;;;;;5112189;28;20077;-86
2023/06/23 04:08:00;;;;;;;0.17;0.17;;;;;;;;;;5112137;28;20027;-85
2023/06/23 04:10:27;;;;;;;0.80;0.80;;;;;;;;;;5112269;28;20034;-85
2023/06/23 04:12:53;;;;;;;0.20;0.20;;;;;;;;;;5115684;28;20027;-85
2023/06/23 04:15:20;;;;;;;0.28;0.20;;;;;;;;;;5116571;28;20544;-85
2023/06/23 04:17:46;;;;;;;0.40;0.40;;;;;;;;;;5116292;28;20503;-85
2023/06/23 04:20:13;;;;;;;0.20;0.20;;;;;;;;;;5116213;28;20020;-85
2023/06/23 04:22:41;;;;;;;0.35;0.35;;;;;;;;;;5116616;28;20031;-85
2023/06/23 04:25:09;;;;;;;0.20;0.20;;;;;;;;;;5116180;28;20090;-85
2023/06/23 04:27:36;;;;;;;0.20;0.20;;;;;;;;;;5115629;28;20030;-85
2023/06/23 04:30:04;;;;;;;0.45;0.45;;;;;;;;;;5115837;28;20059;-85
2023/06/23 04:32:30;;;;;;;0.45;0.45;;;;;;;;;;5116509;28;20028;-85
2023/06/23 04:34:56;;;;;;;0.43;0.30;;;;;;;;;;5115875;28;20048;-85
2023/06/23 04:37:25;;;;;;;0.30;0.30;;;;;;;;;;5115887;28;20383;-85
2023/06/23 04:40:06;;;;;;;0.20;0.20;;;;;;;;;;5115818;28;20028;-85
2023/06/23 04:42:53;;;;;;;0.40;0.38;;;;;;;;;;5115246;28;20434;-85
2023/06/23 04:45:22;;;;;;;2.00;0.43;;;;;;;;;;5115739;28;20034;-85
2023/06/23 04:47:52;;;;;;;0.20;0.20;;;;;;;;;;5114451;28;20426;-85
2023/06/23 04:50:19;;;;;;;0.10;0.10;;;;;;;;;;5116247;28;20024;-85
2023/06/23 04:52:53;;;;;;;0.32;0.32;;;;;;;;;;5114333;28;20387;-85
2023/06/23 04:55:21;;;;;;;0.60;0.35;;;;;;;;;;5115350;28;20114;-86
2023/06/23 04:57:49;;;;;;;0.38;0.38;;;;;;;;;;5115283;28;20024;-85
2023/06/23 05:00:19;;;;;;;0.38;0.38;;;;;;;;;;5115748;28;20430;-85
2023/06/23 05:02:49;;;;;;;0.35;0.35;;;;;;;;;;5115662;28;20379;-85
2023/06/23 05:05:21;;;;;;;0.20;0.20;;;;;;;;;;5115733;28;20043;-85
2023/06/23 05:07:48;;;;;;;0.10;0.10;;;;;;;;;;5115341;28;20020;-86
2023/06/23 05:10:15;;;;;;;0.63;0.63;;;;;;;;;;5115290;28;20035;-85
2023/06/23 05:12:42;;;;;;;1.10;0.30;;;;;;;;;;5115456;28;20031;-85
2023/06/23 05:15:08;;;;;;;0.20;0.20;;;;;;;;;;5115145;28;20039;-85
2023/06/23 05:17:36;;;;;;;0.43;0.43;;;;;;;;;;5115013;28;20023;-85
2023/06/23 05:20:03;;;;;;;0.90;0.20;;;;;;;;;;5115406;28;20023;-85
2023/06/23 05:22:30;;;;;;;0.22;0.22;;;;;;;;;;5114879;28;20433;-85
2023/06/23 05:25:04;;;;;;;0.30;0.30;;;;;;;;;;5114672;28;20034;-86
2023/06/23 05:27:30;;;;;;;0.30;0.30;;;;;;;;;;5113796;28;20484;-86
2023/06/23 05:29:58;;;;;;;0.28;0.22;;;;;;;;;;5113385;28;20399;-85
2023/06/23 05:32:24;;;;;;;0.22;0.22;;;;;;;;;;5114846;28;20019;-85
2023/06/23 05:34:51;;;;;;;0.10;0.10;;;;;;;;;;5114651;28;20458;-85
2023/06/23 05:37:20;;;;;;;0.30;0.30;;;;;;;;;;5114489;28;20479;-85
2023/06/23 05:39:47;;;;;;;0.08;0.08;;;;;;;;;;5114640;28;20016;-86
2023/06/23 05:42:13;;;;;;;0.20;0.20;;;;;;;;;;5114881;28;20069;-85
2023/06/23 05:44:39;;;;;;;0.35;0.35;;;;;;;;;;5114654;28;20439;-85
2023/06/23 05:47:07;;;;;;;0.00;0.00;;;;;;;;;;5114486;28;20441;-86
2023/06/23 05:49:37;;;;;;;0.28;0.28;;;;;;;;;;5114541;28;20028;-86
2023/06/23 05:52:03;;;;;;;0.43;0.43;;;;;;;;;;5114786;28;20028;-85
2023/06/23 05:54:31;;;;;;;0.60;0.60;;;;;;;;;;5114172;28;20038;-86
2023/06/23 05:57:02;;;;;;;0.30;0.30;;;;;;;;;;5114243;28;20034;-86
2023/06/23 05:59:36;;;;;;;0.95;0.20;;;;;;;;;;5114143;28;20028;-86
2023/06/23 06:02:02;;;;;;;0.55;0.55;;;;;;;;;;5114640;28;20027;-85
2023/06/23 06:04:29;;;;;;;0.40;0.40;;;;;;;;;;5114272;28;20024;-85
2023/06/23 06:06:56;;;;;;;0.40;0.40;;;;;;;;;;5113889;28;20384;-86
2023/06/23 06:09:22;;;;;;;0.52;0.52;;;;;;;;;;5113683;28;20023;-86
2023/06/23 06:11:50;;;;;;;0.38;0.38;;;;;;;;;;5114175;28;20019;-86
2023/06/23 06:14:16;;;;;;;0.63;0.45;;;;;;;;;;5114384;28;20024;-86
2023/06/23 06:16:43;;;;;;;0.63;0.60;;;;;;;;;;5113951;28;20426;-86
2023/06/23 06:19:10;;;;;;;0.65;0.63;;;;;;;;;;5114088;28;20027;-86
2023/06/23 06:21:37;;;;;;;1.30;0.70;;;;;;;;;;5113727;28;20059;-86
2023/06/23 06:24:04;;;;;;;0.75;0.75;;;;;;;;;;5113956;28;20032;-85
2023/06/23 06:26:30;;;;;;;1.13;1.02;;;;;;;;;;5113944;28;20049;-86
2023/06/23 06:28:58;;;;;;;1.10;0.63;;;;;;;;;;5112896;28;20472;-86
2023/06/23 06:31:25;;;;;;;0.52;0.50;;;;;;;;;;5112772;28;20099;-86
2023/06/23 06:33:53;;;;;;;0.30;0.30;;;;;;;;;;5113531;28;20050;-86
2023/06/23 06:36:23;;;;;;;2.50;0.95;;;;;;;;;;5112911;28;20031;-86
2023/06/23 06:38:50;;;;;;;0.80;0.80;;;;;;;;;;5113148;28;20023;-86
2023/06/23 06:41:17;;;;;;;1.08;1.00;;;;;;;;;;5113396;28;20034;-86
2023/06/23 06:43:44;;;;;;;0.52;0.38;;;;;;;;;;5113471;28;20103;-86
2023/06/23 06:46:11;;;;;;;0.30;0.30;;;;;;;;;;5113808;28;20391;-86
2023/06/23 06:48:38;;;;;;;0.20;0.20;;;;;;;;;;5113011;28;20100;-86
2023/06/23 06:51:05;;;;;;;0.38;0.28;;;;;;;;;;5113622;28;20027;-86
2023/06/23 06:53:31;;;;;;;1.10;0.38;;;;;;;;;;5113305;28;20092;-86
2023/06/23 06:55:57;;;;;;;0.13;0.13;;;;;;;;;;5113183;28;20086;-86
2023/06/23 06:58:24;;;;;;;0.65;0.65;;;;;;;;;;5113303;28;20016;-86
2023/06/23 07:00:50;;;;;;;0.38;0.38;;;;;;;;;;5113208;28;20453;-86
2023/06/23 07:03:16;;;;;;;0.28;0.28;;;;;;;;;;5113259;28;20015;-86
2023/06/23 07:05:42;;;;;;;0.25;0.25;;;;;;;;;;5113321;28;20487;-86
2023/06/23 07:08:08;;;;;;;3.03;1.10;;;;;;;;;;5112683;28;20058;-86
2023/06/23 07:10:36;;;;;;;1.00;0.90;;;;;;;;;;5113092;28;20031;-86
2023/06/23 07:13:03;;;;;;;0.40;0.40;;;;;;;;;;5112921;28;20494;-86
2023/06/23 07:15:29;;;;;;;0.30;0.30;;;;;;;;;;5113095;28;20510;-86
2023/06/23 07:17:55;;;;;;;0.30;0.30;;;;;;;;;;5112745;28;20019;-86
2023/06/23 07:20:21;;;;;;;0.50;0.45;;;;;;;;;;5113059;28;20028;-86
2023/06/23 07:22:47;;;;;;;0.85;0.75;;;;;;;;;;5112594;28;20020;-86
2023/06/23 07:25:14;;;;;;;0.98;0.57;;;;;;;;;;5113014;28;20034;-86
2023/06/23 07:27:40;;;;;;;0.82;0.70;;;;;;;;;;5112694;28;20106;-86
2023/06/23 07:30:06;;;;;;;0.60;0.60;;;;;;;;;;5112968;28;20097;-85
2023/06/23 07:32:32;;;;;;;0.50;0.20;;;;;;;;;;5112908;28;20028;-86
2023/06/23 07:34:58;;;;;;;0.10;0.10;;;;;;;;;;5112397;28;20058;-86
2023/06/23 07:37:24;;;;;;;0.65;0.40;;;;;;;;;;5112257;28;20026;-86
2023/06/23 07:39:50;;;;;;;0.30;0.30;;;;;;;;;;5112654;28;20563;-86
2023/06/23 07:42:16;;;;;;;0.52;0.50;;;;;;;;;;5112334;28;20404;-86
2023/06/23 07:44:43;;;;;;;0.32;0.32;;;;;;;;;;5112879;28;20027;-85
2023/06/23 07:47:09;;;;;;;3.15;1.58;;;;;;;;;;5110976;28;20031;-86
2023/06/23 07:49:34;;;;;;;1.10;0.85;;;;;;;;;;5112315;28;20028;-86
2023/06/23 07:52:04;;;;;;;0.38;0.38;;;;;;;;;;5112136;28;20031;-85
2023/06/23 07:54:30;;;;;;;4.45;2.00;;;;;;;;;;5112500;28;20027;-86
2023/06/23 07:56:56;;;;;;;2.00;0.80;;;;;;;;;;5112395;28;20027;-85
2023/06/23 07:59:24;;;;;;;0.63;0.55;;;;;;;;;;5112736;28;20024;-85
2023/06/23 08:01:50;;;;;;;0.80;0.80;;;;;;;;;;5112326;28;20023;-85
2023/06/23 08:04:16;;;;;;;0.22;0.22;;;;;;;;;;5112151;28;20043;-85
2023/06/23 08:06:42;;;;;;;0.50;0.50;;;;;;;;;;5112259;28;20032;-86
2023/06/23 08:09:08;;;;;;;0.40;0.30;;;;;;;;;;5112431;28;20464;-85
2023/06/23 08:11:34;;;;;;;0.73;0.73;;;;;;;;;;5112536;28;20036;-85
2023/06/23 08:14:00;;;;;;;0.52;0.52;;;;;;;;;;5112299;28;20016;-85
2023/06/23 08:16:26;;;;;;;3.20;1.10;;;;;;;;;;5112056;28;20063;-86
2023/06/23 08:18:52;;;;;;;0.73;0.68;;;;;;;;;;5111842;28;20042;-85
2023/06/23 08:21:19;;;;;;;0.45;0.45;;;;;;;;;;5112556;28;20028;-85
2023/06/23 08:23:45;;;;;;;0.65;0.57;;;;;;;;;;5112263;28;20023;-85
2023/06/23 08:26:11;;;;;;;1.13;0.40;;;;;;;;;;5111967;28;20034;-86
2023/06/23 08:28:37;;;;;;;0.20;0.20;;;;;;;;;;5112233;28;20028;-85
2023/06/23 08:31:03;;;;;;;0.30;0.30;;;;;;;;;;5111945;28;20489;-85
2023/06/23 08:33:29;;;;;;;0.45;0.30;;;;;;;;;;5111572;28;20043;-85
2023/06/23 08:35:55;;;;;;;0.28;0.28;;;;;;;;;;5112042;28;20147;-86
2023/06/23 08:38:23;;;;;;;0.20;0.20;;;;;;;;;;5112540;28;20035;-85
2023/06/23 08:40:50;;;;;;;0.30;0.30;;;;;;;;;;5112098;28;20075;-85
2023/06/23 08:43:16;;;;;;;0.35;0.35;;;;;;;;;;5111859;28;20031;-85
2023/06/23 08:45:45;;;;;;;0.22;0.20;;;;;;;;;;5111922;28;20023;-85
2023/06/23 08:48:12;;;;;;;0.65;0.57;;;;;;;;;;5111674;28;20399;-85
2023/06/23 08:50:38;;;;;;;0.10;0.10;;;;;;;;;;5112009;28;20137;-85
2023/06/23 08:53:05;;;;;;;0.35;0.30;;;;;;;;;;5112012;28;20088;-85
2023/06/23 08:55:34;;;;;;;0.57;0.30;;;;;;;;;;5112077;28;20035;-85
2023/06/23 08:58:03;;;;;;;2.28;0.52;;;;;;;;;;5112143;28;20026;-85
2023/06/23 09:00:29;;;;;;;0.40;0.40;;;;;;;;;;5114323;28;20392;-85
2023/06/23 09:02:56;;;;;;;0.30;0.30;;;;;;;;;;5115238;28;20069;-85
2023/06/23 09:05:22;;;;;;;0.93;0.73;;;;;;;;;;5115478;28;20139;-85
2023/06/23 09:07:48;;;;;;;0.30;0.30;;;;;;;;;;5115808;28;20016;-85
2023/06/23 09:10:14;;;;;;;0.50;0.50;;;;;;;;;;5115262;28;20055;-85
2023/06/23 09:13:01;;;;;;;0.40;0.40;;;;;;;;;;5115353;28;20488;-85
2023/06/23 09:15:27;;;;;;;0.85;0.50;;;;;;;;;;5114825;28;20111;-85
2023/06/23 09:17:53;;;;;;;0.10;0.10;;;;;;;;;;5114928;28;20102;-85
2023/06/23 09:20:20;;;;;;;0.47;0.47;;;;;;;;;;5115550;28;20027;-85
2023/06/23 09:22:46;;;;;;;0.20;0.20;;;;;;;;;;5114588;28;20028;-85
2023/06/23 09:25:32;;;;;;;1.08;0.68;;;;;;;;;;5115373;28;20429;-85
2023/06/23 09:27:58;;;;;;;0.17;0.17;;;;;;;;;;5114873;28;20030;-85
2023/06/23 09:30:32;;;;;;;0.60;0.60;;;;;;;;;;5114573;28;20028;-85
2023/06/23 09:32:59;;;;;;;0.13;0.13;;;;;;;;;;5114379;28;20061;-85
2023/06/23 09:35:25;;;;;;;0.38;0.30;;;;;;;;;;5114940;28;20491;-85
2023/06/23 09:37:51;;;;;;;0.57;0.45;;;;;;;;;;5114800;28;20027;-85
2023/06/23 09:40:24;;;;;;;0.22;0.22;;;;;;;;;;5114794;28;20054;-85
2023/06/23 09:42:50;;;;;;;0.30;0.30;;;;;;;;;;5114407;28;20027;-85
2023/06/23 09:45:17;;;;;;;0.52;0.52;;;;;;;;;;5114837;28;20077;-85
2023/06/23 09:47:43;;;;;;;1.77;0.75;;;;;;;;;;5113143;28;20445;-85
2023/06/23 09:50:20;;;;;;;0.43;0.40;;;;;;;;;;5113779;28;20071;-87
2023/06/23 09:52:46;;;;;;;0.30;0.30;;;;;;;;;;5112921;28;20514;-87
2023/06/23 09:55:12;;;;;;;0.50;0.32;;;;;;;;;;5114621;28;20063;-87
2023/06/23 09:57:38;;;;;;;0.38;0.38;;;;;;;;;;5095674;28;20093;-87
2023/06/23 10:00:08;;;;;;;0.30;0.30;;;;;;;;;;5113010;28;20162;-89
2023/06/23 10:02:34;;;;;;;0.20;0.20;;;;;;;;;;5113517;28;20084;-89
2023/06/23 10:05:00;;;;;;;0.30;0.30;;;;;;;;;;5113887;28;20045;-88
2023/06/23 10:07:27;;;;;;;0.43;0.30;;;;;;;;;;5113650;28;20094;-88
2023/06/23 10:09:57;;;;;;;0.57;0.47;;;;;;;;;;5114027;28;20027;-90
2023/06/23 10:12:26;;;;;;;0.40;0.40;;;;;;;;;;5095697;28;20027;-88
2023/06/23 10:14:52;;;;;;;0.82;0.82;;;;;;;;;;5113230;28;20043;-87
2023/06/23 10:17:18;;;;;;;0.10;0.10;;;;;;;;;;5113362;28;20027;-87
2023/06/23 10:19:45;;;;;;;0.85;0.43;;;;;;;;;;5113616;28;20031;-88
2023/06/23 10:22:14;;;;;;;0.10;0.10;;;;;;;;;;5114121;28;20020;-88
2023/06/23 10:24:40;;;;;;;0.40;0.40;;;;;;;;;;5113575;28;20396;-87
2023/06/23 10:27:08;;;;;;;0.20;0.20;;;;;;;;;;5112820;28;20124;-87
2023/06/23 10:29:38;;;;;;;0.35;0.35;;;;;;;;;;5112213;28;20020;-87
2023/06/23 10:32:06;;;;;;;0.17;0.17;;;;;;;;;;5109212;28;20051;-87
2023/06/23 10:34:33;;;;;;;0.45;0.45;;;;;;;;;;5104648;28;20118;-87
2023/06/23 10:37:01;;;;;;;0.73;0.40;;;;;;;;;;5110828;28;20035;-86
2023/06/23 10:39:28;;;;;;;0.57;0.32;;;;;;;;;;5092651;28;20415;-87
2023/06/23 10:41:58;;;;;;;0.30;0.30;;;;;;;;;;5111148;28;20081;-87
2023/06/23 10:44:24;;;;;;;0.10;0.10;;;;;;;;;;5110331;28;20039;-87
2023/06/23 10:46:51;;;;;;;0.28;0.28;;;;;;;;;;5110971;28;20110;-86
2023/06/23 10:49:17;;;;;;;0.55;0.38;;;;;;;;;;5110787;28;20091;-87
2023/06/23 10:51:43;;;;;;;0.20;0.20;;;;;;;;;;5111155;28;20510;-86
2023/06/23 10:54:10;;;;;;;0.40;0.40;;;;;;;;;;5110558;28;20093;-88
2023/06/23 10:56:37;;;;;;;0.03;0.03;;;;;;;;;;5112442;28;20437;-86
2023/06/23 10:59:23;;;;;;;0.28;0.25;;;;;;;;;;5112803;28;20135;-86
2023/06/23 11:02:07;;;;;;;0.20;0.20;;;;;;;;;;5094556;28;20465;-87
2023/06/23 11:04:34;;;;;;;0.13;0.13;;;;;;;;;;5110907;28;20020;-86
2023/06/23 11:07:04;;;;;;;0.20;0.20;;;;;;;;;;5094462;28;20032;-85
2023/06/23 11:10:02;;;;;;;0.43;0.43;;;;;;;;;;5113133;28;20081;-85
2023/06/23 11:12:37;;;;;;;0.30;0.30;;;;;;;;;;5103588;28;20040;-85
2023/06/23 11:15:04;;;;;;;1.08;0.63;;;;;;;;;;5112703;28;20396;-85
2023/06/23 11:17:30;;;;;;;0.57;0.57;;;;;;;;;;5112955;28;20362;-85
2023/06/23 11:19:57;;;;;;;0.20;0.20;;;;;;;;;;5112876;28;20055;-85
2023/06/23 11:22:23;;;;;;;0.20;0.20;;;;;;;;;;5112391;28;20419;-84
2023/06/23 11:24:53;;;;;;;0.17;0.17;;;;;;;;;;5113155;28;20053;-85
2023/06/23 11:27:19;;;;;;;0.17;0.17;;;;;;;;;;5112453;28;20023;-84
2023/06/23 11:30:05;;;;;;;0.30;0.30;;;;;;;;;;5112992;28;20494;-85
2023/06/23 11:32:31;;;;;;;0.20;0.20;;;;;;;;;;5108121;28;20388;-86
2023/06/23 11:34:58;;;;;;;0.20;0.20;;;;;;;;;;5091990;28;20139;-85
2023/06/23 11:37:33;;;;;;;0.10;0.10;;;;;;;;;;5092271;28;20446;-85
2023/06/23 11:40:00;;;;;;;0.20;0.20;;;;;;;;;;5092204;28;20013;-84
2023/06/23 11:42:27;;;;;;;0.55;0.55;;;;;;;;;;5098218;28;20027;-85
2023/06/23 11:44:59;;;;;;;0.35;0.35;;;;;;;;;;5112510;28;20031;-85
2023/06/23 11:47:27;;;;;;;0.38;0.38;;;;;;;;;;5112787;28;20504;-85
2023/06/23 11:49:55;;;;;;;0.80;0.80;;;;;;;;;;5112542;28;20110;-85
2023/06/23 11:52:22;;;;;;;0.65;0.43;;;;;;;;;;5112479;28;20023;-85
2023/06/23 11:54:51;;;;;;;0.47;0.47;;;;;;;;;;5112278;28;20032;-85
2023/06/23 11:57:19;;;;;;;0.20;0.20;;;;;;;;;;5112521;28;20087;-86
2023/06/23 11:59:45;;;;;;;1.35;0.57;;;;;;;;;;5112444;28;20061;-85
2023/06/23 12:02:11;;;;;;;0.52;0.35;;;;;;;;;;5112372;28;20165;-86
2023/06/23 12:04:39;;;;;;;0.20;0.20;;;;;;;;;;5112482;28;20030;-85
2023/06/23 12:07:05;;;;;;;0.63;0.30;;;;;;;;;;5112593;28;20024;-86
2023/06/23 12:09:31;;;;;;;0.10;0.10;;;;;;;;;;5112638;28;20369;-86
2023/06/23 12:11:58;;;;;;;1.17;0.43;;;;;;;;;;5112117;28;20030;-86
2023/06/23 12:14:28;;;;;;;0.20;0.20;;;;;;;;;;5112367;28;20027;-85
2023/06/23 12:17:02;;;;;;;0.00;0.00;;;;;;;;;;5112216;28;20114;-85
2023/06/23 12:19:31;;;;;;;0.22;0.22;;;;;;;;;;5112178;28;20094;-85
2023/06/23 12:21:57;;;;;;;0.52;0.32;;;;;;;;;;5112249;28;20503;-85
2023/06/23 12:24:23;;;;;;;1.05;0.30;;;;;;;;;;5112570;28;20027;-84
2023/06/23 12:26:51;;;;;;;0.22;0.22;;;;;;;;;;5111793;28;20375;-85
2023/06/23 12:29:18;;;;;;;0.20;0.20;;;;;;;;;;5112099;28;20028;-84
2023/06/23 12:31:52;;;;;;;0.25;0.25;;;;;;;;;;5112318;28;20031;-84
2023/06/23 12:34:19;;;;;;;0.43;0.43;;;;;;;;;;5096154;28;20044;-84
2023/06/23 12:36:45;;;;;;;0.15;0.15;;;;;;;;;;5115963;28;20027;-84
2023/06/23 12:39:17;;;;;;;0.35;0.35;;;;;;;;;;5115920;28;20027;-84
2023/06/23 12:41:43;;;;;;;2.38;0.65;;;;;;;;;;5115829;28;20032;-85
2023/06/23 12:44:12;;;;;;;0.32;0.32;;;;;;;;;;5115837;28;20387;-85
2023/06/23 12:46:38;;;;;;;0.20;0.20;;;;;;;;;;5115704;28;20047;-85
2023/06/23 12:49:09;;;;;;;0.52;0.20;;;;;;;;;;5115926;28;20027;-85
2023/06/23 12:51:36;;;;;;;0.10;0.10;;;;;;;;;;5116087;28;20442;-84
2023/06/23 12:54:03;;;;;;;1.58;0.70;;;;;;;;;;5115618;28;20066;-84
2023/06/23 12:56:29;;;;;;;1.55;0.93;;;;;;;;;;5115146;28;20032;-84
2023/06/23 12:58:55;;;;;;;0.03;0.03;;;;;;;;;;5115514;28;20096;-84
2023/06/23 13:01:22;;;;;;;1.35;0.63;;;;;;;;;;5115648;28;20476;-84
2023/06/23 13:03:48;;;;;;;0.45;0.30;;;;;;;;;;5115754;28;20100;-84
2023/06/23 13:06:14;;;;;;;1.52;0.63;;;;;;;;;;5115489;28;20480;-84
2023/06/23 13:08:41;;;;;;;0.20;0.20;;;;;;;;;;5115394;28;20507;-84
2023/06/23 13:11:07;;;;;;;0.50;0.50;;;;;;;;;;5114928;28;20015;-84
2023/06/23 13:13:33;;;;;;;0.25;0.25;;;;;;;;;;5115356;28;20098;-84
2023/06/23 13:16:00;;;;;;;0.10;0.10;;;;;;;;;;5115221;28;20472;-84
2023/06/23 13:18:26;;;;;;;0.47;0.47;;;;;;;;;;5115095;28;20027;-85
2023/06/23 13:20:52;;;;;;;0.65;0.40;;;;;;;;;;5115457;28;20032;-85
2023/06/23 13:23:18;;;;;;;0.10;0.10;;;;;;;;;;5114807;28;20024;-84
2023/06/23 13:25:44;;;;;;;0.03;0.03;;;;;;;;;;5115104;28;20124;-84
2023/06/23 13:28:10;;;;;;;0.15;0.15;;;;;;;;;;5115147;28;20050;-85
2023/06/23 13:30:36;;;;;;;0.45;0.45;;;;;;;;;;5115224;28;20073;-85
2023/06/23 13:33:02;;;;;;;0.32;0.32;;;;;;;;;;5114670;28;20016;-84
2023/06/23 13:35:28;;;;;;;1.45;0.20;;;;;;;;;;5114631;28;20043;-84
2023/06/23 13:37:57;;;;;;;0.65;0.38;;;;;;;;;;5114612;28;20027;-84
2023/06/23 13:40:23;;;;;;;0.15;0.15;;;;;;;;;;5115252;28;20043;-84
2023/06/23 13:42:49;;;;;;;0.20;0.20;;;;;;;;;;5114665;28;20020;-85
2023/06/23 13:45:15;;;;;;;0.15;0.15;;;;;;;;;;5113981;28;20039;-84
2023/06/23 13:47:41;;;;;;;0.10;0.10;;;;;;;;;;5113910;28;20098;-86
2023/06/23 13:50:12;;;;;;;0.60;0.22;;;;;;;;;;5112963;28;20450;-84
2023/06/23 13:52:42;;;;;;;0.05;0.05;;;;;;;;;;5113934;28;20028;-82
2023/06/23 13:55:11;;;;;;;4.20;0.30;;;;;;;;;;5113667;28;20046;-85
2023/06/23 13:57:38;;;;;;;0.10;0.10;;;;;;;;;;5114351;28;20058;-85
2023/06/23 14:00:10;;;;;;;0.45;0.25;;;;;;;;;;5114198;28;20027;-84
2023/06/23 14:02:36;;;;;;;0.10;0.10;;;;;;;;;;5114734;28;20484;-84
2023/06/23 14:05:03;;;;;;;0.28;0.28;;;;;;;;;;5114178;28;20024;-85
2023/06/23 14:07:29;;;;;;;0.10;0.10;;;;;;;;;;5113856;28;20089;-84
2023/06/23 14:09:55;;;;;;;0.32;0.32;;;;;;;;;;5114384;28;20072;-84
2023/06/23 14:12:21;;;;;;;0.30;0.30;;;;;;;;;;5113474;28;20049;-84
2023/06/23 14:14:47;;;;;;;0.75;0.32;;;;;;;;;;5101737;28;20036;-85
2023/06/23 14:17:13;;;;;;;0.10;0.10;;;;;;;;;;5111727;27;20089;-85
2023/06/23 14:19:39;;;;;;;0.10;0.10;;;;;;;;;;5113350;28;20364;-84
2023/06/23 14:22:05;;;;;;;0.03;0.03;;;;;;;;;;5113381;28;20024;-84
2023/06/23 14:24:34;;;;;;;0.65;0.65;;;;;;;;;;5113656;28;20074;-85
2023/06/23 14:27:00;;;;;;;1.10;0.50;;;;;;;;;;5113585;28;20113;-85
2023/06/23 14:29:26;;;;;;;0.10;0.10;;;;;;;;;;5114074;28;20027;-85
2023/06/23 14:31:52;;;;;;;0.10;0.10;;;;;;;;;;5113075;28;20559;-84
2023/06/23 14:34:18;;;;;;;0.40;0.40;;;;;;;;;;5113297;28;20134;-85
2023/06/23 14:36:45;;;;;;;0.25;0.25;;;;;;;;;;5113082;28;20100;-85
2023/06/23 14:39:12;;;;;;;0.00;0.00;;;;;;;;;;5113473;28;20019;-85
2023/06/23 14:41:39;;;;;;;0.88;0.32;;;;;;;;;;5109888;28;20154;-85
2023/06/23 14:44:05;;;;;;;0.30;0.30;;;;;;;;;;5093821;28;20023;-85
2023/06/23 14:46:32;;;;;;;0.57;0.30;;;;;;;;;;5112555;28;20185;-85